createdAt,value
2022-10-05T00:00:56.836Z,101156.56
2022-10-05T00:03:37.786Z,101147.59
2022-10-05T00:06:05.777Z,101142.25
2022-10-05T00:08:35.290Z,101146.72
2022-10-05T00:11:09.093Z,101149.00
2022-10-05T00:13:37.209Z,101139.31
2022-10-05T00:16:10.911Z,101145.59
2022-10-05T00:18:40.031Z,101144.75
2022-10-05T00:21:24.690Z,101142.19
2022-10-05T00:23:56.244Z,101128.03
2022-10-05T00:26:27.315Z,101124.53
2022-10-05T00:28:55.356Z,101130.75
2022-10-05T00:31:30.163Z,101135.00
2022-10-05T00:33:58.260Z,101124.47
2022-10-05T00:36:26.335Z,101116.56
2022-10-05T00:38:54.467Z,101115.88
2022-10-05T00:41:24.163Z,101114.13
2022-10-05T00:43:57.640Z,101116.81
2022-10-05T00:46:54.943Z,101107.03
2022-10-05T00:49:22.612Z,101090.00
2022-10-05T00:52:23.752Z,101085.47
2022-10-05T00:55:18.386Z,101076.50
2022-10-05T00:58:27.867Z,101065.91
2022-10-05T01:01:16.679Z,101074.84
2022-10-05T01:03:52.992Z,101089.16
2022-10-05T01:07:04.762Z,101080.25
2022-10-05T01:09:52.861Z,101089.81
2022-10-05T01:12:47.487Z,101087.97
2022-10-05T01:16:04.291Z,101081.19
2022-10-05T01:18:49.291Z,101092.41
2022-10-05T01:21:23.683Z,101108.72
2022-10-05T01:24:31.902Z,101129.94
2022-10-05T01:27:16.029Z,101116.59
2022-10-05T01:30:13.542Z,101117.56
2022-10-05T01:32:48.392Z,101090.78
2022-10-05T01:35:31.115Z,101079.13
2022-10-05T01:38:07.822Z,101084.19
2022-10-05T01:41:13.266Z,101080.75
2022-10-05T01:44:12.040Z,101093.19
2022-10-05T01:46:50.488Z,101098.47
2022-10-05T01:49:32.321Z,101103.88
2022-10-05T01:52:24.565Z,101116.38
2022-10-05T01:55:20.694Z,101150.63
2022-10-05T01:58:13.739Z,101150.41
2022-10-05T02:01:04.446Z,101145.50
2022-10-05T02:03:56.848Z,101141.75
2022-10-05T02:06:30.093Z,101150.94
2022-10-05T02:09:30.338Z,101156.47
2022-10-05T02:12:05.418Z,101161.97
2022-10-05T02:14:43.365Z,101171.78
2022-10-05T02:17:18.226Z,101172.06
2022-10-05T02:19:51.493Z,101166.00
2022-10-05T02:22:36.973Z,101169.34
2022-10-05T02:25:17.548Z,101171.78
2022-10-05T02:28:27.084Z,101165.44
2022-10-05T02:31:09.836Z,101166.03
2022-10-05T02:33:38.094Z,101157.84
2022-10-05T02:36:18.364Z,101161.31
2022-10-05T02:39:52.464Z,101156.53
2022-10-05T02:43:00.086Z,101145.47
2022-10-05T02:45:48.086Z,101139.88
2022-10-05T02:48:56.235Z,101146.78
2022-10-05T02:51:32.538Z,101146.69
2022-10-05T02:54:35.066Z,101137.72
2022-10-05T02:58:09.800Z,101145.34
2022-10-05T03:00:50.116Z,101150.75
2022-10-05T03:03:58.373Z,101159.53
2022-10-05T03:06:37.724Z,101153.66
2022-10-05T03:09:07.986Z,101146.38
2022-10-05T03:12:05.126Z,101146.19
2022-10-05T03:15:50.788Z,101137.91
2022-10-05T03:18:57.169Z,101131.78
2022-10-05T03:21:55.154Z,101130.75
2022-10-05T03:25:13.546Z,101130.84
2022-10-05T03:27:54.452Z,101134.63
2022-10-05T03:30:25.784Z,101136.41
2022-10-05T03:33:06.623Z,101144.22
2022-10-05T03:36:22.092Z,101149.28
2022-10-05T03:39:11.176Z,101144.66
2022-10-05T03:42:17.337Z,101152.25
2022-10-05T03:45:05.805Z,101158.41
2022-10-05T03:47:40.509Z,101165.72
2022-10-05T03:51:04.191Z,101162.81
2022-10-05T03:53:42.995Z,101168.13
2022-10-05T03:56:27.637Z,101166.31
2022-10-05T03:59:35.235Z,101171.38
2022-10-05T04:02:13.226Z,101173.88
2022-10-05T04:05:10.256Z,101180.94
2022-10-05T04:07:51.194Z,101187.03
2022-10-05T04:10:41.793Z,101185.25
2022-10-05T04:13:22.355Z,101189.69
2022-10-05T04:16:21.509Z,101200.81
2022-10-05T04:19:22.151Z,101208.91
2022-10-05T04:22:12.570Z,101220.56
2022-10-05T04:25:00.826Z,101217.13
2022-10-05T04:27:45.477Z,101234.75
2022-10-05T04:30:18.026Z,101231.38
2022-10-05T04:32:57.721Z,101237.66
2022-10-05T04:36:11.647Z,101239.28
2022-10-05T04:39:28.409Z,101249.22
2022-10-05T04:42:28.291Z,101254.19
2022-10-05T04:45:38.030Z,101252.59
2022-10-05T04:49:10.875Z,101270.38
2022-10-05T04:51:51.019Z,101271.38
2022-10-05T04:54:34.074Z,101276.75
2022-10-05T04:57:33.113Z,101288.31
2022-10-05T05:00:23.930Z,101281.97
2022-10-05T05:03:24.271Z,101299.72
2022-10-05T05:06:21.815Z,101311.22
2022-10-05T05:09:16.945Z,101309.41
2022-10-05T05:11:57.027Z,101308.41
2022-10-05T05:14:52.745Z,101305.50
2022-10-05T05:17:32.624Z,101319.88
2022-10-05T05:20:23.421Z,101319.88
2022-10-05T05:23:40.916Z,101325.00
2022-10-05T05:26:58.673Z,101324.88
2022-10-05T05:29:40.133Z,101334.53
2022-10-05T05:32:51.030Z,101347.84
2022-10-05T05:35:34.911Z,101345.16
2022-10-05T05:38:23.945Z,101351.19
2022-10-05T05:41:29.309Z,101365.97
2022-10-05T05:44:05.997Z,101364.88
2022-10-05T05:50:20.269Z,101375.38
2022-10-05T05:53:01.534Z,101368.97
2022-10-05T05:55:42.656Z,101379.69
2022-10-05T05:58:25.778Z,101384.78
2022-10-05T06:01:33.669Z,101385.63
2022-10-05T06:04:21.558Z,101394.47
2022-10-05T06:06:53.418Z,101379.28
2022-10-05T06:09:38.314Z,101388.25
2022-10-05T06:12:30.238Z,101394.69
2022-10-05T06:15:23.690Z,101396.72
2022-10-05T06:17:56.592Z,101400.22
2022-10-05T06:20:40.705Z,101403.94
2022-10-05T06:23:33.193Z,101400.25
2022-10-05T06:26:26.194Z,101403.16
2022-10-05T06:29:05.853Z,101413.91
2022-10-05T06:31:49.977Z,101410.72
2022-10-05T06:34:42.827Z,101428.47
2022-10-05T06:37:29.012Z,101436.91
2022-10-05T06:40:18.647Z,101444.06
2022-10-05T06:42:49.311Z,101446.00
2022-10-05T06:45:35.279Z,101454.06
2022-10-05T06:48:49.353Z,101455.00
2022-10-05T06:51:43.585Z,101447.69
2022-10-05T06:55:11.866Z,101454.22
2022-10-05T06:58:13.290Z,101463.22
2022-10-05T07:00:54.600Z,101457.06
2022-10-05T07:03:34.128Z,101458.00
2022-10-05T07:06:11.982Z,101459.00
2022-10-05T07:09:12.087Z,101467.41
2022-10-05T07:12:04.442Z,101472.75
2022-10-05T07:15:03.179Z,101468.47
2022-10-05T07:17:45.595Z,101461.19
2022-10-05T07:21:08.350Z,101466.78
2022-10-05T07:23:44.580Z,101480.47
2022-10-05T07:26:32.489Z,101475.72
2022-10-05T07:29:34.078Z,101492.41
2022-10-05T07:32:05.160Z,101492.16
2022-10-05T07:34:55.856Z,101481.59
2022-10-05T07:37:57.427Z,101489.22
2022-10-05T07:40:49.123Z,101495.34
2022-10-05T07:44:07.746Z,101498.44
2022-10-05T07:46:56.856Z,101499.47
2022-10-05T07:49:36.949Z,101508.13
2022-10-05T07:52:24.930Z,101525.34
2022-10-05T07:55:26.367Z,101530.00
2022-10-05T07:58:18.805Z,101537.47
2022-10-05T08:01:11.189Z,101543.19
2022-10-05T08:04:12.503Z,101529.22
2022-10-05T08:06:43.584Z,101532.81
2022-10-05T08:09:23.260Z,101540.16
2022-10-05T08:12:31.877Z,101542.16
2022-10-05T08:15:21.985Z,101555.06
2022-10-05T08:17:55.986Z,101553.53
2022-10-05T08:20:34.886Z,101560.38
2022-10-05T08:23:34.137Z,101558.59
2022-10-05T08:26:29.213Z,101545.19
2022-10-05T08:29:56.167Z,101532.88
2022-10-05T08:32:30.832Z,101540.16
2022-10-05T08:35:23.313Z,101539.63
2022-10-05T08:37:52.650Z,101542.50
2022-10-05T08:40:33.633Z,101553.50
2022-10-05T08:43:17.454Z,101560.25
2022-10-05T08:45:54.296Z,101568.94
2022-10-05T08:49:02.379Z,101567.13
2022-10-05T08:52:12.227Z,101573.91
2022-10-05T08:55:35.086Z,101539.16
2022-10-05T08:58:33.334Z,101553.09
2022-10-05T09:01:04.146Z,101558.91
2022-10-05T09:03:57.071Z,101548.41
2022-10-05T09:06:51.349Z,101540.88
2022-10-05T09:09:51.149Z,101550.28
2022-10-05T09:12:27.913Z,101518.44
2022-10-05T09:15:26.312Z,101525.88
2022-10-05T09:18:09.627Z,101499.31
2022-10-05T09:20:37.390Z,101475.38
2022-10-05T09:23:43.015Z,101458.59
2022-10-05T09:26:51.676Z,101442.72
2022-10-05T09:29:43.769Z,101428.63
2022-10-05T09:32:45.948Z,101436.13
2022-10-05T09:35:38.519Z,101415.03
2022-10-05T09:38:38.692Z,101410.03
2022-10-05T09:41:48.263Z,101390.66
2022-10-05T09:44:47.254Z,101379.38
2022-10-05T09:47:38.222Z,101367.91
2022-10-05T09:50:37.986Z,101339.34
2022-10-05T09:53:27.297Z,101333.16
2022-10-05T09:56:13.250Z,101329.69
2022-10-05T09:59:11.887Z,101324.53
2022-10-05T10:01:57.851Z,101323.72
2022-10-05T10:04:53.640Z,101306.78
2022-10-05T10:07:58.535Z,101288.09
2022-10-05T10:10:53.568Z,101280.91
2022-10-05T10:13:30.469Z,101283.41
2022-10-05T10:16:37.995Z,101269.06
2022-10-05T10:19:35.870Z,101247.75
2022-10-05T10:22:19.913Z,101269.69
2022-10-05T10:25:19.638Z,101242.06
2022-10-05T10:28:02.719Z,101228.56
2022-10-05T10:31:18.050Z,101237.19
2022-10-05T10:34:41.490Z,101232.72
2022-10-05T10:37:39.547Z,101246.50
2022-10-05T10:40:23.391Z,101243.38
2022-10-05T10:43:28.476Z,101228.13
2022-10-05T10:46:33.842Z,101218.19
2022-10-05T10:49:36.891Z,101189.69
2022-10-05T10:52:53.879Z,101180.63
2022-10-05T10:55:30.946Z,101216.56
2022-10-05T10:58:56.269Z,101195.03
2022-10-05T11:01:34.624Z,101207.72
2022-10-05T11:04:36.568Z,101192.09
2022-10-05T11:07:23.142Z,101173.22
2022-10-05T11:10:31.341Z,101183.59
2022-10-05T11:13:07.983Z,101162.72
2022-10-05T11:15:56.932Z,101155.66
2022-10-05T11:18:24.767Z,101149.19
2022-10-05T11:21:16.657Z,101131.28
2022-10-05T11:24:19.652Z,101142.69
2022-10-05T11:27:44.204Z,101154.72
2022-10-05T11:30:23.054Z,101110.00
2022-10-05T11:33:28.305Z,101182.59
2022-10-05T11:36:34.264Z,101089.66
2022-10-05T11:39:42.511Z,101092.41
2022-10-05T11:42:50.593Z,101063.81
2022-10-05T11:45:26.121Z,101075.25
2022-10-05T11:48:24.579Z,101069.66
2022-10-05T11:51:28.466Z,101022.59
2022-10-05T11:54:09.486Z,101042.28
2022-10-05T11:56:42.026Z,101045.19
2022-10-05T11:59:16.211Z,101007.81
2022-10-05T12:02:00.153Z,101016.69
2022-10-05T12:05:11.382Z,100973.66
2022-10-05T12:08:28.933Z,100988.38
2022-10-05T12:11:22.861Z,100928.59
2022-10-05T12:14:03.725Z,100906.28
2022-10-05T12:17:16.970Z,100952.94
2022-10-05T12:19:56.601Z,100967.13
2022-10-05T12:22:51.533Z,100946.91
2022-10-05T12:25:33.506Z,100897.84
2022-10-05T12:28:12.434Z,100930.66
2022-10-05T12:31:14.628Z,100931.97
2022-10-05T12:34:05.402Z,100923.81
2022-10-05T12:37:08.263Z,100928.50
2022-10-05T12:40:05.419Z,100877.38
2022-10-05T12:42:59.983Z,100879.19
2022-10-05T12:45:40.166Z,100812.91
2022-10-05T12:48:58.147Z,100879.56
2022-10-05T12:51:57.995Z,100830.03
2022-10-05T12:54:41.563Z,100863.81
2022-10-05T12:57:35.093Z,100771.56
2022-10-05T13:00:17.738Z,100788.13
2022-10-05T13:02:51.344Z,100780.59
2022-10-05T13:05:38.016Z,100786.44
2022-10-05T13:08:43.383Z,100814.28
2022-10-05T13:11:33.507Z,100714.19
2022-10-05T13:14:13.486Z,100737.66
2022-10-05T13:17:23.733Z,100717.38
2022-10-05T13:20:07.766Z,100672.75
2022-10-05T13:22:49.253Z,100667.47
2022-10-05T13:25:31.407Z,100647.34
2022-10-05T13:28:02.156Z,100682.25
2022-10-05T13:30:31.180Z,100658.81
2022-10-05T13:33:25.694Z,100653.13
2022-10-05T13:36:05.542Z,100607.94
2022-10-05T13:39:11.611Z,100691.19
2022-10-05T13:41:51.938Z,100600.53
2022-10-05T13:44:58.822Z,100589.56
2022-10-05T13:48:00.921Z,100598.63
2022-10-05T13:50:45.866Z,100595.72
2022-10-05T13:53:28.150Z,100569.69
2022-10-05T13:56:00.418Z,100564.00
2022-10-05T13:59:05.261Z,100599.56
2022-10-05T14:01:53.650Z,100615.56
2022-10-05T14:04:27.515Z,100570.31
2022-10-05T14:06:57.453Z,100532.25
2022-10-05T14:09:30.632Z,100586.56
2022-10-05T14:12:04.435Z,100517.47
2022-10-05T14:14:43.953Z,100525.38
2022-10-05T14:17:37.441Z,100522.47
2022-10-05T14:20:34.311Z,100532.06
2022-10-05T14:23:24.701Z,100517.56
2022-10-05T14:25:54.230Z,100509.78
2022-10-05T14:28:31.463Z,100498.47
2022-10-05T14:31:16.559Z,100525.72
2022-10-05T14:33:45.011Z,100487.66
2022-10-05T14:36:16.785Z,100427.41
2022-10-05T14:38:55.223Z,100470.31
2022-10-05T14:41:27.570Z,100511.47
2022-10-05T14:44:13.690Z,100466.91
2022-10-05T14:47:04.725Z,100478.41
2022-10-05T14:49:37.077Z,100476.56
2022-10-05T14:52:34.814Z,100438.84
2022-10-05T14:55:43.787Z,100425.69
2022-10-05T14:58:44.425Z,100435.94
2022-10-05T15:01:52.528Z,100398.38
2022-10-05T15:04:43.218Z,100398.41
2022-10-05T15:07:31.109Z,100383.84
2022-10-05T15:10:51.333Z,100381.16
2022-10-05T15:13:24.276Z,100376.13
2022-10-05T15:16:25.440Z,100374.13
2022-10-05T15:19:16.749Z,100405.53
2022-10-05T15:22:26.309Z,100331.56
2022-10-05T15:25:16.138Z,100359.88
2022-10-05T15:27:56.518Z,100362.44
2022-10-05T15:30:24.630Z,100342.34
2022-10-05T15:33:27.769Z,100331.91
2022-10-05T15:36:04.686Z,100332.50
2022-10-05T15:39:16.457Z,100322.38
2022-10-05T15:42:08.127Z,100301.41
2022-10-05T15:45:11.626Z,100288.88
2022-10-05T15:48:03.724Z,100264.38
2022-10-05T15:51:07.136Z,100274.34
2022-10-05T15:53:55.357Z,100269.03
2022-10-05T15:56:41.070Z,100277.63
2022-10-05T15:59:46.126Z,100269.28
2022-10-05T16:02:29.163Z,100259.59
2022-10-05T16:05:20.065Z,100241.53
2022-10-05T16:08:12.412Z,100254.78
2022-10-05T16:10:47.510Z,100246.50
2022-10-05T16:13:46.831Z,100244.44
2022-10-05T16:16:47.717Z,100262.84
2022-10-05T16:19:35.768Z,100240.47
2022-10-05T16:22:25.182Z,100263.69
2022-10-05T16:25:05.074Z,100268.56
2022-10-05T16:27:47.983Z,100288.09
2022-10-05T16:30:22.635Z,100301.84
2022-10-05T16:33:02.508Z,100283.94
2022-10-05T16:35:53.647Z,100334.25
2022-10-05T16:39:06.731Z,100308.81
2022-10-05T16:42:06.428Z,100345.59
2022-10-05T16:44:55.580Z,100328.75
2022-10-05T16:48:13.342Z,100326.47
2022-10-05T16:50:59.011Z,100318.50
2022-10-05T16:53:44.511Z,100312.25
2022-10-05T16:56:18.425Z,100339.22
2022-10-05T16:59:11.460Z,100339.38
2022-10-05T17:02:31.625Z,100321.28
2022-10-05T17:05:39.982Z,100338.00
2022-10-05T17:08:45.710Z,100361.59
2022-10-05T17:11:35.423Z,100396.97
2022-10-05T17:14:11.520Z,100410.72
2022-10-05T17:17:17.970Z,100431.41
2022-10-05T17:20:10.096Z,100409.19
2022-10-05T17:22:51.595Z,100390.59
2022-10-05T17:25:57.360Z,100405.41
2022-10-05T17:29:16.677Z,100391.97
2022-10-05T17:32:30.664Z,100372.75
2022-10-05T17:35:01.767Z,100357.06
2022-10-05T17:38:17.239Z,100334.69
2022-10-05T17:41:12.025Z,100300.44
2022-10-05T17:44:20.535Z,100306.94
2022-10-05T17:46:53.239Z,100316.81
2022-10-05T17:50:08.609Z,100323.22
2022-10-05T17:53:00.013Z,100319.84
2022-10-05T17:55:45.307Z,100347.22
2022-10-05T17:58:29.493Z,100311.94
2022-10-05T18:00:58.555Z,100305.53
2022-10-05T18:03:52.864Z,100316.00
2022-10-05T18:06:37.987Z,100305.69
2022-10-05T18:09:20.593Z,100309.28
2022-10-05T18:12:17.047Z,100314.09
2022-10-05T18:15:07.036Z,100320.28
2022-10-05T18:18:00.909Z,100325.06
2022-10-05T18:20:32.605Z,100336.63
2022-10-05T18:23:03.619Z,100338.47
2022-10-05T18:26:08.194Z,100348.72
2022-10-05T18:29:14.063Z,100350.72
2022-10-05T18:32:01.159Z,100360.34
2022-10-05T18:34:41.816Z,100354.34
2022-10-05T18:37:56.176Z,100369.22
2022-10-05T18:40:34.566Z,100362.97
2022-10-05T18:43:40.803Z,100371.53
2022-10-05T18:46:46.563Z,100368.59
2022-10-05T18:50:00.572Z,100378.34
2022-10-05T18:53:00.740Z,100364.34
2022-10-05T18:55:58.887Z,100388.19
2022-10-05T18:59:37.020Z,100374.75
2022-10-05T19:02:18.279Z,100381.06
2022-10-05T19:05:46.518Z,100383.94
2022-10-05T19:08:32.998Z,100393.69
2022-10-05T19:11:12.417Z,100396.22
2022-10-05T19:14:32.147Z,100387.69
2022-10-05T19:17:14.961Z,100395.56
2022-10-05T19:20:05.955Z,100407.41
2022-10-05T19:22:54.197Z,100406.41
2022-10-05T19:26:03.438Z,100408.38
2022-10-05T19:29:08.500Z,100421.69
2022-10-05T19:31:38.943Z,100411.69
2022-10-05T19:34:56.230Z,100411.94
2022-10-05T19:37:51.815Z,100410.94
2022-10-05T19:41:27.949Z,100411.28
2022-10-05T19:44:56.830Z,100421.88
2022-10-05T19:48:15.337Z,100409.69
2022-10-05T19:50:58.592Z,100425.91
2022-10-05T19:53:49.909Z,100441.16
2022-10-05T19:56:21.710Z,100443.25
2022-10-05T19:58:52.003Z,100465.25
2022-10-05T20:01:27.552Z,100476.81
2022-10-05T20:03:55.510Z,100490.91
2022-10-05T20:06:23.614Z,100493.56
2022-10-05T20:08:53.763Z,100492.00
2022-10-05T20:11:27.391Z,100508.81
2022-10-05T20:13:55.312Z,100489.44
2022-10-05T20:19:47.105Z,100539.00
2022-10-05T20:22:38.076Z,100526.63
2022-10-05T20:25:19.384Z,100550.50
2022-10-05T20:27:58.067Z,100535.72
2022-10-05T20:30:29.057Z,100543.69
2022-10-05T20:32:59.617Z,100562.41
2022-10-05T20:35:30.625Z,100582.59
2022-10-05T20:38:02.021Z,100583.47
2022-10-05T20:40:30.653Z,100587.78
2022-10-05T20:42:59.038Z,100577.28
2022-10-05T20:45:26.965Z,100572.19
2022-10-05T20:47:55.029Z,100580.28
2022-10-05T20:50:22.857Z,100607.66
2022-10-05T20:52:50.793Z,100604.13
2022-10-05T20:55:18.570Z,100634.28
2022-10-05T20:57:47.385Z,100627.13
2022-10-05T21:00:15.339Z,100642.91
2022-10-05T21:02:43.178Z,100636.72
2022-10-05T21:05:10.984Z,100637.53
2022-10-05T21:07:38.906Z,100627.88
2022-10-05T21:10:07.194Z,100670.28
2022-10-05T21:12:34.959Z,100648.06
2022-10-05T21:15:06.207Z,100656.06
2022-10-05T21:17:34.693Z,100651.72
2022-10-05T21:20:02.530Z,100673.97
2022-10-05T21:22:30.357Z,100679.22
2022-10-05T21:24:58.474Z,100665.94
2022-10-05T21:27:26.286Z,100660.19
2022-10-05T21:29:54.169Z,100664.78
2022-10-05T21:32:21.932Z,100691.31
2022-10-05T21:34:50.139Z,100698.44
2022-10-05T21:37:19.841Z,100710.84
2022-10-05T21:39:47.578Z,100742.19
2022-10-05T21:42:15.399Z,100763.78
2022-10-05T21:44:43.178Z,100736.44
2022-10-05T21:47:11.006Z,100734.63
2022-10-05T21:49:38.822Z,100742.53
2022-10-05T21:52:06.651Z,100744.25
2022-10-05T21:54:35.117Z,100754.75
2022-10-05T21:57:03.361Z,100734.44
2022-10-05T21:59:33.327Z,100736.47
2022-10-05T22:02:02.389Z,100745.34
2022-10-05T22:04:30.117Z,100737.75
2022-10-05T22:06:58.084Z,100752.84
2022-10-05T22:09:25.941Z,100759.78
2022-10-05T22:11:54.897Z,100761.72
2022-10-05T22:14:22.776Z,100772.44
2022-10-05T22:16:50.601Z,100773.41
2022-10-05T22:19:20.112Z,100781.41
2022-10-05T22:21:47.874Z,100785.03
2022-10-05T22:24:15.676Z,100778.00
2022-10-05T22:26:47.376Z,100791.34
2022-10-05T22:29:17.002Z,100803.69
2022-10-05T22:31:48.662Z,100784.34
2022-10-05T22:34:18.430Z,100777.28
2022-10-05T22:36:47.555Z,100765.13
2022-10-05T22:39:17.070Z,100764.47
2022-10-05T22:41:45.122Z,100774.31
2022-10-05T22:44:12.936Z,100785.88
2022-10-05T22:46:40.860Z,100804.41
2022-10-05T22:49:09.307Z,100808.91
2022-10-05T22:51:37.092Z,100810.75
2022-10-05T22:54:05.305Z,100816.97
2022-10-05T22:56:33.394Z,100822.31
2022-10-05T22:59:01.376Z,100831.16
2022-10-05T23:01:29.231Z,100838.13
2022-10-05T23:03:57.381Z,100846.16
2022-10-05T23:06:28.253Z,100834.63
2022-10-05T23:08:56.680Z,100829.38
2022-10-05T23:11:30.202Z,100841.84
2022-10-05T23:13:58.758Z,100848.97
2022-10-05T23:16:28.816Z,100857.88
2022-10-05T23:18:56.897Z,100870.28
2022-10-05T23:21:28.874Z,100867.66
2022-10-05T23:23:56.718Z,100863.25
2022-10-05T23:26:26.520Z,100848.22
2022-10-05T23:28:54.389Z,100857.16
2022-10-05T23:31:29.301Z,100874.06
2022-10-05T23:33:57.188Z,100896.25
2022-10-05T23:36:28.410Z,100898.94
2022-10-05T23:38:56.159Z,100895.41
2022-10-05T23:41:24.965Z,100910.50
2022-10-05T23:43:55.209Z,100915.84
2022-10-05T23:46:23.319Z,100922.03
2022-10-05T23:48:53.144Z,100926.47
2022-10-05T23:51:20.967Z,100923.81
2022-10-05T23:53:48.682Z,100926.47
2022-10-05T23:56:16.496Z,100933.53
2022-10-05T23:58:45.022Z,100940.56
